createdAt,value
2022-09-26T03:00:18.626Z,9.50
2022-09-26T03:02:50.449Z,9.50
2022-09-26T03:05:21.935Z,9.50
2022-09-26T03:07:56.417Z,9.50
2022-09-26T03:10:26.750Z,9.60
2022-09-26T03:12:56.871Z,9.50
2022-09-26T03:15:27.251Z,9.60
2022-09-26T03:17:57.374Z,9.60
2022-09-26T03:20:26.097Z,9.60
2022-09-26T03:22:56.738Z,9.70
2022-09-26T03:25:28.349Z,9.70
2022-09-26T03:28:04.265Z,9.70
2022-09-26T03:30:34.295Z,9.70
2022-09-26T03:33:27.235Z,9.80
2022-09-26T03:35:58.511Z,9.80
2022-09-26T03:38:26.619Z,9.80
2022-09-26T03:41:04.678Z,9.80
2022-09-26T03:43:50.696Z,9.80
2022-09-26T03:46:20.440Z,9.70
2022-09-26T03:48:49.095Z,9.80
2022-09-26T03:51:17.023Z,9.70
2022-09-26T03:53:47.097Z,9.50
2022-09-26T03:56:19.530Z,9.50
2022-09-26T03:58:49.830Z,9.60
2022-09-26T04:01:22.051Z,9.70
2022-09-26T04:03:51.461Z,9.70
2022-09-26T04:06:21.099Z,9.80
2022-09-26T04:08:51.835Z,9.80
2022-09-26T04:11:22.873Z,9.90
2022-09-26T04:13:53.231Z,9.90
2022-09-26T04:16:25.794Z,9.90
2022-09-26T04:19:00.766Z,9.90
2022-09-26T04:21:29.628Z,9.90
2022-09-26T04:23:59.380Z,9.90
2022-09-26T04:26:27.371Z,9.90
2022-09-26T04:28:57.918Z,9.90
2022-09-26T04:31:46.007Z,9.90
2022-09-26T04:34:16.197Z,9.80
2022-09-26T04:36:44.301Z,9.80
2022-09-26T04:39:12.471Z,9.90
2022-09-26T04:41:40.306Z,9.90
2022-09-26T04:44:08.121Z,9.90
2022-09-26T04:46:35.909Z,9.90
2022-09-26T04:49:06.402Z,9.70
2022-09-26T04:51:35.832Z,9.60
2022-09-26T04:54:04.334Z,9.50
2022-09-26T04:56:38.137Z,9.60
2022-09-26T04:59:07.644Z,9.60
2022-09-26T05:01:58.359Z,9.50
2022-09-26T05:04:33.319Z,9.50
2022-09-26T05:07:01.459Z,9.50
2022-09-26T05:09:35.723Z,9.40
2022-09-26T05:12:07.924Z,9.40
2022-09-26T05:14:37.678Z,9.50
2022-09-26T05:17:05.958Z,9.50
2022-09-26T05:19:35.327Z,9.60
2022-09-26T05:22:23.462Z,9.50
2022-09-26T05:25:09.767Z,9.60
2022-09-26T05:27:39.872Z,9.60
2022-09-26T05:30:09.124Z,9.60
2022-09-26T05:32:36.942Z,9.70
2022-09-26T05:35:07.827Z,9.70
2022-09-26T05:37:41.063Z,9.70
2022-09-26T05:40:27.861Z,9.70
2022-09-26T05:43:01.758Z,9.70
2022-09-26T05:45:31.242Z,9.70
2022-09-26T05:48:00.553Z,9.70
2022-09-26T05:50:30.267Z,9.70
2022-09-26T05:52:58.816Z,9.70
2022-09-26T05:55:27.257Z,9.80
2022-09-26T05:58:13.802Z,9.80
2022-09-26T06:01:06.522Z,9.80
2022-09-26T06:03:35.484Z,9.90
2022-09-26T06:06:13.773Z,9.90
2022-09-26T06:08:43.179Z,9.90
2022-09-26T06:11:30.927Z,9.90
2022-09-26T06:14:00.473Z,9.90
2022-09-26T06:16:29.486Z,10.00
2022-09-26T06:18:58.338Z,10.00
2022-09-26T06:21:27.603Z,10.10
2022-09-26T06:24:02.124Z,10.10
2022-09-26T06:26:31.260Z,10.10
2022-09-26T06:29:00.653Z,10.10
2022-09-26T06:31:31.642Z,10.00
2022-09-26T06:34:25.964Z,10.10
2022-09-26T06:37:05.975Z,10.10
2022-09-26T06:39:36.874Z,10.00
2022-09-26T06:42:07.324Z,10.10
2022-09-26T06:44:56.251Z,10.10
2022-09-26T06:47:24.128Z,10.00
2022-09-26T06:50:04.381Z,10.10
2022-09-26T06:52:38.008Z,10.00
2022-09-26T06:55:08.436Z,10.10
2022-09-26T06:57:40.555Z,10.10
2022-09-26T07:00:10.368Z,9.90
2022-09-26T07:02:57.433Z,10.00
2022-09-26T07:05:45.165Z,10.10
2022-09-26T07:08:14.866Z,10.20
2022-09-26T07:10:42.808Z,10.30
2022-09-26T07:13:17.110Z,10.40
2022-09-26T07:15:46.485Z,10.50
2022-09-26T07:18:28.180Z,10.40
2022-09-26T07:21:05.871Z,10.50
2022-09-26T07:24:01.496Z,10.40
2022-09-26T07:26:29.331Z,10.30
2022-09-26T07:28:57.867Z,10.30
2022-09-26T07:31:27.864Z,10.40
2022-09-26T07:34:08.669Z,10.50
2022-09-26T07:36:39.665Z,10.50
2022-09-26T07:39:09.826Z,10.50
2022-09-26T07:41:37.954Z,10.50
2022-09-26T07:47:11.188Z,10.60
2022-09-26T07:49:56.410Z,10.70
2022-09-26T07:52:44.461Z,10.80
2022-09-26T07:55:26.219Z,10.80
2022-09-26T07:58:12.492Z,10.90
2022-09-26T08:01:07.891Z,10.90
2022-09-26T08:03:58.152Z,11.00
2022-09-26T08:06:35.173Z,11.20
2022-09-26T08:09:03.203Z,11.20
2022-09-26T08:11:50.800Z,11.30
2022-09-26T08:14:47.585Z,11.30
2022-09-26T08:17:32.448Z,11.30
2022-09-26T08:20:00.423Z,11.40
2022-09-26T08:22:28.767Z,11.50
2022-09-26T08:24:58.752Z,11.50
2022-09-26T08:27:50.394Z,11.50
2022-09-26T08:30:19.001Z,11.60
2022-09-26T08:32:53.791Z,11.70
2022-09-26T08:35:21.654Z,11.70
2022-09-26T08:38:16.456Z,11.80
2022-09-26T08:40:54.449Z,11.80
2022-09-26T08:43:53.530Z,11.80
2022-09-26T08:46:56.975Z,11.90
2022-09-26T08:49:48.925Z,12.00
2022-09-26T08:52:32.999Z,12.10
2022-09-26T08:55:08.521Z,12.20
2022-09-26T08:57:41.140Z,12.30
2022-09-26T09:00:19.932Z,12.30
2022-09-26T09:03:05.017Z,12.40
2022-09-26T09:05:38.989Z,12.50
2022-09-26T09:08:14.149Z,12.70
2022-09-26T09:11:03.324Z,13.00
2022-09-26T09:13:46.494Z,13.20
2022-09-26T09:17:03.308Z,13.30
2022-09-26T09:20:12.886Z,13.40
2022-09-26T09:23:29.158Z,13.50
2022-09-26T09:29:12.661Z,13.80
2022-09-26T09:31:45.771Z,13.90
2022-09-26T09:34:28.837Z,14.20
2022-09-26T09:37:23.041Z,14.20
2022-09-26T09:40:14.922Z,14.30
2022-09-26T09:42:57.908Z,14.40
2022-09-26T09:45:31.083Z,14.60
2022-09-26T09:47:59.351Z,14.50
2022-09-26T09:50:40.805Z,14.40
2022-09-26T09:53:21.970Z,14.40
2022-09-26T09:55:59.867Z,14.50
2022-09-26T09:58:42.005Z,14.40
2022-09-26T10:01:19.637Z,14.40
2022-09-26T10:03:55.487Z,14.30
2022-09-26T10:06:45.179Z,14.30
2022-09-26T10:09:38.542Z,14.30
2022-09-26T10:12:40.874Z,14.20
2022-09-26T10:15:19.606Z,14.10
2022-09-26T10:18:23.921Z,14.10
2022-09-26T10:21:08.860Z,14.20
2022-09-26T10:23:40.576Z,14.40
2022-09-26T10:26:15.745Z,14.70
2022-09-26T10:28:48.042Z,14.70
2022-09-26T10:31:24.639Z,14.80
2022-09-26T10:34:24.434Z,14.80
2022-09-26T10:36:53.167Z,14.60
2022-09-26T10:39:41.653Z,14.50
2022-09-26T10:42:16.604Z,14.50
2022-09-26T10:44:46.002Z,14.40
2022-09-26T10:47:25.698Z,14.40
2022-09-26T10:50:24.772Z,14.30
2022-09-26T10:53:22.933Z,14.30
2022-09-26T10:55:57.417Z,14.20
2022-09-26T10:58:29.841Z,14.10
2022-09-26T11:01:04.325Z,14.20
2022-09-26T11:03:42.587Z,14.20
2022-09-26T11:06:25.636Z,14.30
2022-09-26T11:09:03.272Z,14.40
2022-09-26T11:11:58.497Z,14.60
2022-09-26T11:14:34.332Z,14.60
2022-09-26T11:17:09.430Z,14.70
2022-09-26T11:19:45.446Z,14.80
2022-09-26T11:22:22.190Z,14.90
2022-09-26T11:24:59.364Z,14.90
2022-09-26T11:27:35.398Z,14.80
2022-09-26T11:30:12.027Z,14.80
2022-09-26T11:32:48.420Z,15.00
2022-09-26T11:35:45.188Z,15.00
2022-09-26T11:38:38.271Z,15.00
2022-09-26T11:41:36.304Z,15.10
2022-09-26T11:44:32.584Z,15.10
2022-09-26T11:47:44.861Z,14.90
2022-09-26T11:50:40.165Z,14.60
2022-09-26T11:53:55.667Z,14.60
2022-09-26T11:56:49.896Z,14.50
2022-09-26T11:59:40.348Z,14.50
2022-09-26T12:02:38.172Z,14.50
2022-09-26T12:05:35.074Z,14.60
2022-09-26T12:08:18.634Z,14.60
2022-09-26T12:11:00.331Z,14.60
2022-09-26T12:13:37.976Z,14.50
2022-09-26T12:16:14.962Z,14.40
2022-09-26T12:18:55.109Z,14.40
2022-09-26T12:21:31.155Z,14.50
2022-09-26T12:24:06.187Z,14.60
2022-09-26T12:26:40.278Z,14.50
2022-09-26T12:29:32.088Z,14.60
2022-09-26T12:32:15.751Z,14.70
2022-09-26T12:35:14.625Z,14.60
2022-09-26T12:38:01.936Z,14.50
2022-09-26T12:40:40.402Z,14.40
2022-09-26T12:43:31.729Z,14.40
2022-09-26T12:46:21.513Z,14.30
2022-09-26T12:49:04.753Z,14.30
2022-09-26T12:51:43.365Z,14.30
2022-09-26T12:54:27.635Z,14.40
2022-09-26T12:57:04.237Z,14.50
2022-09-26T12:59:52.506Z,14.60
2022-09-26T13:02:56.656Z,14.70
2022-09-26T13:05:50.328Z,14.80
2022-09-26T13:08:25.809Z,14.80
2022-09-26T13:11:08.063Z,14.80
2022-09-26T13:13:50.316Z,14.80
2022-09-26T13:16:26.461Z,14.70
2022-09-26T13:19:01.195Z,14.60
2022-09-26T13:21:44.103Z,14.50
2022-09-26T13:24:18.856Z,14.50
2022-09-26T13:26:52.200Z,14.40
2022-09-26T13:29:26.273Z,14.30
2022-09-26T13:31:58.816Z,14.30
2022-09-26T13:34:34.820Z,14.30
2022-09-26T13:37:07.886Z,14.40
2022-09-26T13:39:44.181Z,14.40
2022-09-26T13:42:19.847Z,14.40
2022-09-26T13:45:00.446Z,14.50
2022-09-26T13:47:35.398Z,14.50
2022-09-26T13:50:19.856Z,14.60
2022-09-26T13:53:06.666Z,14.60
2022-09-26T13:55:36.419Z,14.70
2022-09-26T13:58:07.853Z,14.60
2022-09-26T14:00:54.561Z,14.70
2022-09-26T14:03:43.103Z,14.70
2022-09-26T14:06:26.976Z,14.80
2022-09-26T14:09:27.053Z,14.90
2022-09-26T14:12:29.601Z,14.90
2022-09-26T14:15:17.836Z,14.90
2022-09-26T14:18:08.955Z,14.90
2022-09-26T14:21:13.915Z,14.90
2022-09-26T14:23:44.325Z,15.00
2022-09-26T14:26:15.539Z,14.90
2022-09-26T14:28:53.047Z,15.00
2022-09-26T14:31:38.511Z,15.00
2022-09-26T14:34:17.475Z,15.10
2022-09-26T14:36:46.501Z,15.00
2022-09-26T14:39:33.188Z,15.10
2022-09-26T14:42:18.684Z,15.00
2022-09-26T14:44:55.504Z,15.00
2022-09-26T14:47:24.378Z,15.00
2022-09-26T14:50:00.919Z,15.00
2022-09-26T14:52:29.398Z,15.00
2022-09-26T14:55:01.008Z,15.10
2022-09-26T14:57:33.638Z,15.10
2022-09-26T15:00:03.427Z,15.10
2022-09-26T15:02:42.135Z,15.20
2022-09-26T15:05:22.674Z,15.20
2022-09-26T15:07:52.807Z,15.20
2022-09-26T15:10:40.018Z,15.10
2022-09-26T15:13:29.398Z,15.10
2022-09-26T15:16:00.670Z,15.10
2022-09-26T15:18:35.970Z,15.20
2022-09-26T15:21:11.069Z,15.10
2022-09-26T15:23:48.258Z,15.00
2022-09-26T15:26:18.774Z,15.00
2022-09-26T15:28:50.368Z,15.00
2022-09-26T15:31:29.507Z,15.00
2022-09-26T15:34:01.476Z,15.00
2022-09-26T15:36:31.215Z,15.00
2022-09-26T15:39:00.679Z,15.00
2022-09-26T15:41:42.640Z,14.90
2022-09-26T15:44:20.476Z,14.80
2022-09-26T15:46:50.398Z,14.80
2022-09-26T15:49:22.890Z,14.70
2022-09-26T15:51:54.467Z,14.70
2022-09-26T15:54:27.141Z,14.60
2022-09-26T15:56:58.367Z,14.70
2022-09-26T15:59:32.211Z,14.60
2022-09-26T16:02:01.334Z,14.60
2022-09-26T16:04:31.164Z,14.60
2022-09-26T16:07:01.727Z,14.60
2022-09-26T16:09:34.525Z,14.50
2022-09-26T16:12:04.667Z,14.60
2022-09-26T16:14:41.491Z,14.60
2022-09-26T16:17:20.125Z,14.50
2022-09-26T16:19:50.398Z,14.50
2022-09-26T16:22:24.055Z,14.50
2022-09-26T16:24:52.341Z,14.40
2022-09-26T16:27:30.090Z,14.50
2022-09-26T16:30:04.709Z,14.40
2022-09-26T16:32:33.297Z,14.30
2022-09-26T16:35:12.417Z,14.20
2022-09-26T16:37:40.467Z,14.00
2022-09-26T16:40:19.233Z,13.90
2022-09-26T16:42:47.270Z,13.80
2022-09-26T16:45:16.645Z,13.70
2022-09-26T16:47:47.664Z,13.60
2022-09-26T16:50:19.975Z,13.60
2022-09-26T16:52:47.865Z,13.60
2022-09-26T16:55:15.957Z,13.60
2022-09-26T16:57:53.248Z,13.70
2022-09-26T17:00:41.234Z,13.80
2022-09-26T17:03:20.829Z,13.70
2022-09-26T17:05:48.873Z,13.70
2022-09-26T17:08:17.323Z,13.70
2022-09-26T17:10:46.283Z,13.60
2022-09-26T17:13:16.923Z,13.60
2022-09-26T17:15:48.542Z,13.60
2022-09-26T17:18:20.699Z,13.50
2022-09-26T17:20:49.490Z,13.40
2022-09-26T17:23:38.748Z,13.40
2022-09-26T17:26:07.617Z,13.30
2022-09-26T17:28:39.086Z,13.30
2022-09-26T17:31:14.503Z,13.20
2022-09-26T17:33:43.394Z,13.20
2022-09-26T17:36:16.718Z,13.20
2022-09-26T17:38:44.705Z,13.00
2022-09-26T17:41:13.180Z,13.00
2022-09-26T17:43:42.644Z,12.90
2022-09-26T17:46:15.848Z,12.90
2022-09-26T17:48:45.406Z,12.90
2022-09-26T17:51:14.305Z,12.80
2022-09-26T17:53:50.060Z,12.80
2022-09-26T17:56:19.250Z,12.80
2022-09-26T17:58:48.960Z,12.80
2022-09-26T18:01:23.343Z,12.80
2022-09-26T18:03:55.214Z,12.70
2022-09-26T18:06:27.326Z,12.60
2022-09-26T18:08:58.215Z,12.60
2022-09-26T18:11:27.061Z,12.60
2022-09-26T18:13:55.980Z,12.50
2022-09-26T18:16:25.981Z,12.50
2022-09-26T18:18:53.810Z,12.50
2022-09-26T18:21:24.223Z,12.50
2022-09-26T18:23:55.513Z,12.40
2022-09-26T18:26:29.422Z,12.40
2022-09-26T18:28:58.838Z,12.30
2022-09-26T18:31:31.703Z,12.30
2022-09-26T18:34:01.002Z,12.20
2022-09-26T18:36:31.408Z,12.20
2022-09-26T18:38:59.244Z,12.10
2022-09-26T18:41:28.582Z,12.10
2022-09-26T18:44:00.184Z,12.00
2022-09-26T18:46:30.170Z,11.90
2022-09-26T18:48:59.742Z,11.90
2022-09-26T18:51:27.958Z,11.80
2022-09-26T18:53:55.763Z,11.80
2022-09-26T18:56:41.050Z,11.80
2022-09-26T18:59:10.036Z,11.80
2022-09-26T19:01:42.616Z,11.70
2022-09-26T19:04:14.768Z,11.80
2022-09-26T19:06:45.002Z,11.80
2022-09-26T19:09:15.379Z,11.90
2022-09-26T19:11:44.175Z,11.90
2022-09-26T19:14:15.331Z,12.00
2022-09-26T19:16:45.646Z,11.90
2022-09-26T19:19:14.300Z,11.90
2022-09-26T19:21:44.075Z,11.90
2022-09-26T19:24:20.741Z,12.00
2022-09-26T19:26:51.999Z,11.90
2022-09-26T19:29:28.103Z,11.90
2022-09-26T19:31:57.974Z,11.90
2022-09-26T19:34:28.216Z,11.90
2022-09-26T19:37:01.208Z,11.80
2022-09-26T19:39:29.117Z,11.70
2022-09-26T19:41:56.924Z,11.70
2022-09-26T19:44:24.774Z,11.70
2022-09-26T19:46:52.663Z,11.60
2022-09-26T19:49:24.017Z,11.60
2022-09-26T19:51:51.906Z,11.60
2022-09-26T19:54:20.230Z,11.50
2022-09-26T19:56:48.210Z,11.60
2022-09-26T19:59:17.143Z,11.60
2022-09-26T20:01:47.325Z,11.50
2022-09-26T20:04:17.398Z,11.50
2022-09-26T20:06:47.334Z,11.50
2022-09-26T20:09:17.926Z,11.50
2022-09-26T20:11:46.381Z,11.50
2022-09-26T20:14:26.354Z,11.50
2022-09-26T20:16:57.363Z,11.50
2022-09-26T20:19:35.449Z,11.50
2022-09-26T20:22:07.449Z,11.50
2022-09-26T20:24:38.424Z,11.40
2022-09-26T20:27:08.057Z,11.40
2022-09-26T20:29:50.380Z,11.40
2022-09-26T20:32:19.218Z,11.40
2022-09-26T20:34:47.068Z,11.40
2022-09-26T20:37:16.469Z,11.40
2022-09-26T20:39:44.957Z,11.40
2022-09-26T20:42:17.532Z,11.30
2022-09-26T20:44:46.941Z,11.40
2022-09-26T20:47:19.512Z,11.30
2022-09-26T20:49:53.493Z,11.30
2022-09-26T20:52:25.777Z,11.30
2022-09-26T20:54:53.929Z,11.30
2022-09-26T20:57:23.163Z,11.30
2022-09-26T20:59:51.327Z,11.30
2022-09-26T21:02:26.905Z,11.30
2022-09-26T21:04:55.489Z,11.40
2022-09-26T21:07:25.358Z,11.40
2022-09-26T21:09:53.187Z,11.40
2022-09-26T21:12:21.162Z,11.40
2022-09-26T21:14:49.117Z,11.30
2022-09-26T21:17:21.423Z,11.30
2022-09-26T21:19:51.119Z,11.30
2022-09-26T21:22:40.384Z,11.30
2022-09-26T21:25:16.023Z,11.30
2022-09-26T21:27:44.091Z,11.30
